Time;durP1;ratioP1;P1;durP2;ratioP2;P2;SDS_P1;SDS_P2;PMS_P1;PMS_P2;Temp;Humidity;BMP_temperature;BMP_pressure;BME280_temperature;BME280_humidity;BME280_pressure;Samples;Min_cycle;Max_cycle;Signal;HPM_P1;HPM_P2
2021/10/31 00:01:22;;;;;;;;;;;10.30;99.90;;;;;;5109833;28;20316;-72
2021/10/31 00:03:50;;;;;;;;;;;10.30;99.90;;;;;;5108218;28;20303;-73
2021/10/31 00:06:17;;;;;;;;;;;10.20;99.90;;;;;;5108358;28;19924;-72
2021/10/31 00:08:44;;;;;;;;;;;10.20;99.90;;;;;;5108948;28;19924;-72
2021/10/31 00:11:10;;;;;;;;;;;10.10;99.90;;;;;;5101782;28;19930;-73
2021/10/31 00:13:37;;;;;;;;;;;10.10;99.90;;;;;;5109248;28;19923;-73
2021/10/31 00:16:04;;;;;;;;;;;10.10;99.90;;;;;;5108135;28;20022;-72
2021/10/31 00:18:30;;;;;;;;;;;10.10;99.90;;;;;;5109166;28;19930;-72
2021/10/31 00:20:58;;;;;;;;;;;10.00;99.90;;;;;;5107555;28;19923;-72
2021/10/31 00:23:25;;;;;;;;;;;10.00;99.90;;;;;;5109842;28;19923;-72
2021/10/31 00:25:52;;;;;;;;;;;10.00;99.90;;;;;;5104845;28;20309;-73
2021/10/31 00:28:19;;;;;;;;;;;9.90;99.90;;;;;;5108157;28;19932;-73
2021/10/31 00:30:45;;;;;;;;;;;9.90;99.90;;;;;;5108594;28;20347;-72
2021/10/31 00:33:12;;;;;;;;;;;9.90;99.90;;;;;;5108619;28;19923;-72
2021/10/31 00:35:39;;;;;;;;;;;9.90;99.90;;;;;;5107338;28;19937;-72
2021/10/31 00:38:07;;;;;;;;;;;9.90;99.90;;;;;;5106977;28;19924;-72
2021/10/31 00:40:34;;;;;;;;;;;9.90;99.90;;;;;;5108329;28;19928;-72
2021/10/31 00:43:01;;;;;;;;;;;9.90;99.90;;;;;;5109511;28;19930;-72
2021/10/31 00:45:27;;;;;;;;;;;9.90;99.90;;;;;;5105249;28;20400;-73
2021/10/31 00:47:54;;;;;;;;;;;9.80;99.90;;;;;;5108987;28;20018;-73
2021/10/31 00:50:21;;;;;;;;;;;9.80;99.90;;;;;;5106026;28;19923;-72
2021/10/31 00:52:48;;;;;;;;;;;9.80;99.90;;;;;;5110352;28;19930;-72
2021/10/31 00:55:16;;;;;;;;;;;9.80;99.90;;;;;;5106135;28;19923;-73
2021/10/31 00:57:43;;;;;;;;;;;9.80;99.90;;;;;;5108349;28;19931;-73
2021/10/31 01:00:11;;;;;;;;;;;9.80;99.90;;;;;;5105506;28;19960;-73
2021/10/31 01:02:37;;;;;;;;;;;9.80;99.90;;;;;;5107123;28;19923;-72
2021/10/31 01:05:06;;;;;;;;;;;9.80;99.90;;;;;;5105785;28;20382;-73
2021/10/31 01:07:48;;;;;;;;;;;9.80;99.90;;;;;;5108368;28;20073;-72
2021/10/31 01:10:18;;;;;;;;;;;9.80;99.90;;;;;;5104151;28;19924;-73
2021/10/31 01:12:52;;;;;;;;;;;9.70;99.90;;;;;;5113149;27;19927;-72
2021/10/31 01:15:24;;;;;;;;;;;9.70;99.90;;;;;;5109615;27;19930;-72
2021/10/31 01:17:59;;;;;;;;;;;9.60;99.90;;;;;;5112502;27;19923;-73
2021/10/31 01:20:32;;;;;;;;;;;9.60;99.90;;;;;;5109016;27;19924;-73
2021/10/31 01:23:07;;;;;;;;;;;9.60;99.90;;;;;;5112631;27;19927;-72
2021/10/31 01:25:56;;;;;;;;;;;9.60;99.90;;;;;;5108529;27;19927;-73
2021/10/31 01:28:31;;;;;;;;;;;9.60;99.90;;;;;;5111210;27;20282;-72
2021/10/31 01:31:01;;;;;;;;;;;9.60;99.90;;;;;;5109813;27;19924;-73
2021/10/31 01:33:37;;;;;;;;;;;9.50;99.90;;;;;;5111654;27;20278;-73
2021/10/31 01:36:06;;;;;;;;;;;9.50;99.90;;;;;;5111083;27;19927;-72
2021/10/31 01:38:35;;;;;;;;;;;9.50;99.90;;;;;;5112791;27;19924;-73
2021/10/31 01:41:04;;;;;;;;;;;9.50;99.90;;;;;;5110609;27;19924;-72
2021/10/31 01:43:35;;;;;;;;;;;9.50;99.90;;;;;;5112950;28;20435;-73
2021/10/31 01:46:07;;;;;;;;;;;9.50;99.90;;;;;;5110992;27;20010;-73
2021/10/31 01:48:37;;;;;;;;;;;9.50;99.90;;;;;;5110741;28;19932;-73
2021/10/31 01:51:09;;;;;;;;;;;9.50;99.90;;;;;;5111943;27;19923;-73
2021/10/31 01:53:37;;;;;;;;;;;9.50;99.90;;;;;;5110400;27;19924;-73
2021/10/31 01:56:06;;;;;;;;;;;9.40;99.90;;;;;;5110487;28;20008;-73
2021/10/31 01:58:36;;;;;;;;;;;9.40;99.90;;;;;;5111340;27;20124;-73
2021/10/31 02:01:03;;;;;;;;;;;9.40;99.90;;;;;;5110752;27;20283;-73
2021/10/31 02:03:31;;;;;;;;;;;9.40;99.90;;;;;;5109342;27;19976;-72
2021/10/31 02:05:59;;;;;;;;;;;9.40;99.90;;;;;;5111240;27;20298;-73
2021/10/31 02:08:26;;;;;;;;;;;9.40;99.90;;;;;;5110080;27;19924;-73
2021/10/31 02:10:54;;;;;;;;;;;9.40;99.90;;;;;;5110300;27;19976;-72
2021/10/31 02:13:24;;;;;;;;;;;9.40;99.90;;;;;;5108952;27;20297;-72
2021/10/31 02:15:52;;;;;;;;;;;9.40;99.90;;;;;;5108325;27;19931;-73
2021/10/31 02:18:20;;;;;;;;;;;9.50;99.90;;;;;;5104437;27;19931;-72
2021/10/31 02:20:48;;;;;;;;;;;9.50;99.90;;;;;;5108575;27;19930;-72
2021/10/31 02:23:16;;;;;;;;;;;9.50;99.90;;;;;;5110068;27;19928;-72
2021/10/31 02:25:43;;;;;;;;;;;9.50;99.90;;;;;;5105554;27;19935;-72
2021/10/31 02:28:10;;;;;;;;;;;9.50;99.90;;;;;;5110345;28;20283;-72
2021/10/31 02:30:37;;;;;;;;;;;9.50;99.90;;;;;;5110513;27;19946;-73
2021/10/31 02:33:03;;;;;;;;;;;9.50;99.90;;;;;;5109957;27;19930;-73
2021/10/31 02:35:30;;;;;;;;;;;9.50;99.90;;;;;;5107084;27;19924;-74
2021/10/31 02:37:57;;;;;;;;;;;9.50;99.90;;;;;;5107727;27;19938;-73
2021/10/31 02:40:25;;;;;;;;;;;9.50;99.90;;;;;;5108490;27;19927;-72
2021/10/31 02:42:51;;;;;;;;;;;9.50;99.90;;;;;;5110603;27;20018;-72
2021/10/31 02:45:18;;;;;;;;;;;9.50;99.90;;;;;;5107165;27;19950;-73
2021/10/31 02:47:46;;;;;;;;;;;9.50;99.90;;;;;;5108297;28;19927;-72
2021/10/31 02:50:15;;;;;;;;;;;9.50;99.90;;;;;;5108664;27;19928;-73
2021/10/31 02:52:50;;;;;;;;;;;9.50;99.90;;;;;;5110955;27;19924;-73
2021/10/31 02:55:18;;;;;;;;;;;9.60;99.90;;;;;;5106570;27;19934;-73
2021/10/31 02:57:50;;;;;;;;;;;9.60;99.90;;;;;;5109989;27;19927;-72
2021/10/31 03:00:17;;;;;;;;;;;9.60;99.90;;;;;;5106910;27;19931;-74
2021/10/31 03:02:44;;;;;;;;;;;9.60;99.90;;;;;;5109763;27;19927;-73
2021/10/31 03:05:11;;;;;;;;;;;9.70;99.90;;;;;;5108182;27;19931;-73
2021/10/31 03:07:38;;;;;;;;;;;9.70;99.90;;;;;;5111439;27;19923;-73
2021/10/31 03:10:06;;;;;;;;;;;9.70;99.90;;;;;;5108501;27;19924;-73
2021/10/31 03:12:33;;;;;;;;;;;9.80;99.90;;;;;;5109216;27;19928;-73
2021/10/31 03:15:01;;;;;;;;;;;9.80;99.90;;;;;;5107199;28;19932;-73
2021/10/31 03:17:27;;;;;;;;;;;9.80;99.90;;;;;;5110391;28;19924;-73
2021/10/31 03:19:54;;;;;;;;;;;9.80;99.90;;;;;;5104937;27;19924;-73
2021/10/31 03:22:21;;;;;;;;;;;9.80;99.90;;;;;;5107610;28;19938;-74
2021/10/31 03:24:47;;;;;;;;;;;9.80;99.90;;;;;;5108141;27;20293;-74
2021/10/31 03:27:14;;;;;;;;;;;9.70;99.90;;;;;;5108286;28;19944;-74
2021/10/31 03:29:40;;;;;;;;;;;9.80;99.90;;;;;;5107007;27;19930;-74
2021/10/31 03:32:09;;;;;;;;;;;9.80;99.90;;;;;;5105923;27;19949;-74
2021/10/31 03:34:35;;;;;;;;;;;9.80;99.90;;;;;;5106765;27;19924;-74
2021/10/31 03:37:02;;;;;;;;;;;9.80;99.90;;;;;;5107650;28;19928;-73
2021/10/31 03:39:28;;;;;;;;;;;9.80;99.90;;;;;;5106725;27;19939;-73
2021/10/31 03:41:55;;;;;;;;;;;9.70;99.90;;;;;;5104851;27;19924;-73
2021/10/31 03:44:23;;;;;;;;;;;9.80;99.90;;;;;;5106554;27;19923;-73
2021/10/31 03:46:50;;;;;;;;;;;9.70;99.90;;;;;;5108353;27;20402;-74
2021/10/31 03:49:18;;;;;;;;;;;9.70;99.90;;;;;;5107327;27;19930;-73
2021/10/31 03:51:45;;;;;;;;;;;9.70;99.90;;;;;;5105736;28;19928;-74
2021/10/31 03:54:12;;;;;;;;;;;9.60;99.90;;;;;;5104273;28;19924;-73
2021/10/31 03:56:38;;;;;;;;;;;9.60;99.90;;;;;;5107772;27;19947;-73
2021/10/31 03:59:05;;;;;;;;;;;9.50;99.90;;;;;;5107981;28;19927;-73
2021/10/31 04:01:32;;;;;;;;;;;9.50;99.90;;;;;;5107575;27;19931;-73
2021/10/31 04:03:59;;;;;;;;;;;9.50;99.90;;;;;;5103703;28;19930;-73
2021/10/31 04:06:27;;;;;;;;;;;9.50;99.90;;;;;;5106882;28;20453;-73
2021/10/31 04:08:54;;;;;;;;;;;9.50;99.90;;;;;;5107076;28;19932;-73
2021/10/31 04:11:20;;;;;;;;;;;9.50;99.90;;;;;;5112165;28;20374;-73
2021/10/31 04:13:47;;;;;;;;;;;9.40;99.90;;;;;;5106247;28;19934;-72
2021/10/31 04:16:14;;;;;;;;;;;9.50;99.90;;;;;;5106191;28;21242;-72
2021/10/31 04:18:40;;;;;;;;;;;9.50;99.90;;;;;;5107476;28;19924;-73
2021/10/31 04:21:07;;;;;;;;;;;9.50;99.90;;;;;;5107205;28;19924;-73
2021/10/31 04:23:35;;;;;;;;;;;9.50;99.90;;;;;;5106460;28;19938;-73
2021/10/31 04:26:02;;;;;;;;;;;9.50;99.90;;;;;;5108336;28;19924;-73
2021/10/31 04:28:28;;;;;;;;;;;9.50;99.90;;;;;;5106497;28;19927;-73
2021/10/31 04:30:55;;;;;;;;;;;9.50;99.90;;;;;;5105040;28;19927;-73
2021/10/31 04:33:22;;;;;;;;;;;9.50;99.90;;;;;;5106994;28;20017;-73
2021/10/31 04:35:48;;;;;;;;;;;9.50;99.90;;;;;;5106816;28;20306;-73
2021/10/31 04:38:18;;;;;;;;;;;9.60;99.90;;;;;;5106037;28;19924;-73
2021/10/31 04:40:46;;;;;;;;;;;9.60;99.90;;;;;;5106838;28;20279;-73
2021/10/31 04:43:13;;;;;;;;;;;9.70;99.90;;;;;;5105979;28;19932;-73
2021/10/31 04:45:40;;;;;;;;;;;9.70;99.90;;;;;;5109324;27;19930;-73
2021/10/31 04:48:07;;;;;;;;;;;9.70;99.90;;;;;;5112533;27;19930;-73
2021/10/31 04:50:34;;;;;;;;;;;9.70;99.90;;;;;;5111960;27;19923;-73
2021/10/31 04:53:00;;;;;;;;;;;9.80;99.90;;;;;;5111022;27;20007;-73
2021/10/31 04:55:27;;;;;;;;;;;9.80;99.90;;;;;;5111535;27;19969;-72
2021/10/31 04:57:56;;;;;;;;;;;9.90;99.90;;;;;;5114072;27;20022;-72
2021/10/31 05:00:24;;;;;;;;;;;9.90;99.90;;;;;;5109545;27;19939;-74
2021/10/31 05:02:52;;;;;;;;;;;9.90;99.90;;;;;;5112614;27;19990;-73
2021/10/31 05:05:19;;;;;;;;;;;9.90;99.90;;;;;;5110645;27;19930;-73
2021/10/31 05:07:46;;;;;;;;;;;9.90;99.90;;;;;;5113638;27;19938;-73
2021/10/31 05:10:13;;;;;;;;;;;9.90;99.90;;;;;;5110857;27;20406;-72
2021/10/31 05:12:40;;;;;;;;;;;10.00;99.90;;;;;;5112313;27;19923;-73
2021/10/31 05:15:09;;;;;;;;;;;10.00;99.90;;;;;;5108743;27;19924;-73
2021/10/31 05:17:35;;;;;;;;;;;10.00;99.90;;;;;;5113064;28;20359;-72
2021/10/31 05:20:02;;;;;;;;;;;9.90;99.90;;;;;;5109627;27;19924;-73
2021/10/31 05:22:29;;;;;;;;;;;10.00;99.90;;;;;;5112975;27;19992;-72
2021/10/31 05:24:56;;;;;;;;;;;10.00;99.90;;;;;;5107702;27;19946;-72
2021/10/31 05:27:22;;;;;;;;;;;10.00;99.90;;;;;;5112756;27;21900;-73
2021/10/31 05:29:49;;;;;;;;;;;10.00;99.90;;;;;;5111095;27;19932;-73
2021/10/31 05:32:17;;;;;;;;;;;10.00;99.90;;;;;;5112833;27;19924;-73
2021/10/31 05:34:44;;;;;;;;;;;10.10;99.90;;;;;;5107313;27;20412;-72
2021/10/31 05:37:11;;;;;;;;;;;10.10;99.90;;;;;;5112955;28;19924;-73
2021/10/31 05:39:38;;;;;;;;;;;10.10;99.90;;;;;;5111648;27;19935;-73
2021/10/31 05:42:05;;;;;;;;;;;10.10;99.90;;;;;;5110361;27;19928;-73
2021/10/31 05:44:31;;;;;;;;;;;10.10;99.90;;;;;;5110795;27;19930;-73
2021/10/31 05:46:58;;;;;;;;;;;10.00;99.90;;;;;;5110657;27;19931;-73
2021/10/31 05:49:26;;;;;;;;;;;10.00;99.90;;;;;;5111118;28;19928;-74
2021/10/31 05:51:53;;;;;;;;;;;10.00;99.90;;;;;;5111715;27;19931;-73
2021/10/31 05:54:19;;;;;;;;;;;10.00;99.90;;;;;;5115488;27;20386;-73
2021/10/31 05:56:46;;;;;;;;;;;10.00;99.90;;;;;;5108968;27;19942;-73
2021/10/31 05:59:13;;;;;;;;;;;10.00;99.90;;;;;;5111421;27;19923;-74
2021/10/31 06:01:39;;;;;;;;;;;10.00;99.90;;;;;;5108753;27;19934;-73
2021/10/31 06:04:06;;;;;;;;;;;10.00;99.90;;;;;;5106819;27;19927;-73
2021/10/31 06:06:34;;;;;;;;;;;10.00;99.90;;;;;;5108561;27;20331;-72
2021/10/31 06:09:01;;;;;;;;;;;10.00;99.90;;;;;;5107443;27;19931;-72
2021/10/31 06:11:30;;;;;;;;;;;10.00;99.90;;;;;;5110676;27;20027;-73
2021/10/31 06:13:58;;;;;;;;;;;10.00;99.90;;;;;;5109045;27;19927;-73
2021/10/31 06:16:26;;;;;;;;;;;10.00;99.90;;;;;;5109506;27;20094;-73
2021/10/31 06:18:53;;;;;;;;;;;10.00;99.90;;;;;;5105540;27;20031;-72
2021/10/31 06:21:19;;;;;;;;;;;10.10;99.90;;;;;;5108792;27;20399;-73
2021/10/31 06:23:47;;;;;;;;;;;10.00;99.90;;;;;;5107998;27;19924;-72
2021/10/31 06:26:14;;;;;;;;;;;10.00;99.90;;;;;;5109258;27;19923;-75
2021/10/31 06:28:40;;;;;;;;;;;10.00;99.90;;;;;;5107676;27;19930;-72
2021/10/31 06:31:07;;;;;;;;;;;10.00;99.90;;;;;;5104903;27;20542;-71
2021/10/31 06:33:34;;;;;;;;;;;10.00;99.90;;;;;;5107969;27;20283;-72
2021/10/31 06:36:00;;;;;;;;;;;10.00;99.90;;;;;;5106525;28;19924;-71
2021/10/31 06:38:27;;;;;;;;;;;10.00;99.90;;;;;;5108952;27;19946;-71
2021/10/31 06:40:55;;;;;;;;;;;9.90;99.90;;;;;;5106550;27;19938;-72
2021/10/31 06:43:22;;;;;;;;;;;10.00;99.90;;;;;;5110287;27;19930;-71
2021/10/31 06:45:48;;;;;;;;;;;10.00;99.90;;;;;;5109719;27;20306;-71
2021/10/31 06:48:15;;;;;;;;;;;10.00;99.90;;;;;;5105883;27;19930;-71
2021/10/31 06:50:42;;;;;;;;;;;10.00;99.90;;;;;;5104156;27;20006;-71
2021/10/31 06:53:08;;;;;;;;;;;10.00;99.90;;;;;;5106119;27;20318;-71
2021/10/31 06:55:35;;;;;;;;;;;10.10;99.90;;;;;;5105044;27;19938;-71
2021/10/31 06:58:04;;;;;;;;;;;10.20;99.90;;;;;;5108307;27;19924;-71
2021/10/31 07:00:31;;;;;;;;;;;10.10;99.90;;;;;;5102632;27;19931;-71
2021/10/31 07:02:58;;;;;;;;;;;10.30;99.90;;;;;;5107214;27;20374;-72
2021/10/31 07:05:24;;;;;;;;;;;10.30;99.90;;;;;;5106114;28;19924;-72
2021/10/31 07:07:51;;;;;;;;;;;10.30;99.90;;;;;;5105798;27;19974;-73
2021/10/31 07:10:18;;;;;;;;;;;10.40;99.90;;;;;;5106078;27;20377;-71
2021/10/31 07:12:45;;;;;;;;;;;10.40;99.90;;;;;;5107585;28;19936;-74
2021/10/31 07:15:13;;;;;;;;;;;10.50;99.90;;;;;;5107584;27;19930;-74
2021/10/31 07:17:39;;;;;;;;;;;10.50;99.90;;;;;;5105609;27;19934;-73
2021/10/31 07:20:06;;;;;;;;;;;10.50;99.90;;;;;;5104944;27;19954;-73
2021/10/31 07:22:34;;;;;;;;;;;10.60;99.90;;;;;;5104236;27;19946;-73
2021/10/31 07:25:00;;;;;;;;;;;10.60;99.90;;;;;;5103386;27;19924;-73
2021/10/31 07:27:27;;;;;;;;;;;10.70;99.90;;;;;;5109564;27;19978;-73
2021/10/31 07:29:54;;;;;;;;;;;10.70;99.90;;;;;;5108485;28;19932;-75
2021/10/31 07:32:21;;;;;;;;;;;10.80;99.90;;;;;;5110132;28;19930;-75
2021/10/31 07:34:48;;;;;;;;;;;10.80;99.90;;;;;;5109862;28;19923;-75
2021/10/31 07:37:15;;;;;;;;;;;10.90;99.90;;;;;;5110915;27;19930;-75
2021/10/31 07:39:42;;;;;;;;;;;10.90;99.90;;;;;;5109501;27;19924;-75
2021/10/31 07:42:09;;;;;;;;;;;11.00;99.90;;;;;;5118389;27;19928;-75
2021/10/31 07:44:36;;;;;;;;;;;11.00;99.90;;;;;;5110372;28;19923;-75
2021/10/31 07:47:03;;;;;;;;;;;11.10;99.90;;;;;;5115222;27;19937;-76
2021/10/31 07:49:31;;;;;;;;;;;11.10;99.90;;;;;;5104573;28;19924;-76
2021/10/31 07:51:57;;;;;;;;;;;11.20;99.90;;;;;;5103840;27;19930;-75
2021/10/31 07:54:25;;;;;;;;;;;11.20;99.90;;;;;;5110356;28;20007;-75
2021/10/31 07:56:55;;;;;;;;;;;11.30;99.90;;;;;;5107543;28;19931;-75
2021/10/31 07:59:21;;;;;;;;;;;11.30;99.90;;;;;;5109192;28;19931;-75
2021/10/31 08:01:49;;;;;;;;;;;11.30;99.90;;;;;;5109789;28;19947;-75
2021/10/31 08:04:17;;;;;;;;;;;11.40;99.90;;;;;;5108728;28;20011;-76
2021/10/31 08:06:45;;;;;;;;;;;11.50;99.90;;;;;;5110007;28;19924;-75
2021/10/31 08:09:12;;;;;;;;;;;11.50;99.90;;;;;;5104177;28;19942;-76
2021/10/31 08:11:42;;;;;;;;;;;11.70;99.90;;;;;;5110847;28;19924;-76
2021/10/31 08:14:08;;;;;;;;;;;11.90;99.90;;;;;;5108622;28;19923;-75
2021/10/31 08:16:36;;;;;;;;;;;12.00;99.90;;;;;;5107988;28;20389;-75
2021/10/31 08:19:03;;;;;;;;;;;12.20;99.90;;;;;;5108571;28;19932;-75
2021/10/31 08:21:29;;;;;;;;;;;12.20;99.90;;;;;;5113770;28;20006;-76
2021/10/31 08:23:58;;;;;;;;;;;12.50;99.90;;;;;;5112106;27;19930;-75
2021/10/31 08:26:25;;;;;;;;;;;13.10;99.90;;;;;;5114071;27;19931;-77
2021/10/31 08:28:52;;;;;;;;;;;13.80;99.90;;;;;;5113462;27;20301;-76
2021/10/31 08:31:25;;;;;;;;;;;13.80;99.90;;;;;;5113486;28;19928;-76
2021/10/31 08:33:55;;;;;;;;;;;13.60;99.90;;;;;;5110657;27;19949;-75
2021/10/31 08:36:22;;;;;;;;;;;13.90;99.90;;;;;;5114839;28;19993;-75
2021/10/31 08:38:49;;;;;;;;;;;14.10;99.90;;;;;;5112510;27;19934;-76
2021/10/31 08:41:18;;;;;;;;;;;14.10;99.90;;;;;;5107341;27;19928;-76
2021/10/31 08:43:44;;;;;;;;;;;14.00;99.90;;;;;;5112795;27;19934;-75
2021/10/31 08:46:11;;;;;;;;;;;14.00;99.90;;;;;;5113318;27;19934;-76
2021/10/31 08:48:39;;;;;;;;;;;14.20;99.90;;;;;;5113455;27;19924;-77
2021/10/31 08:51:05;;;;;;;;;;;14.40;99.90;;;;;;5113278;27;19924;-75
2021/10/31 08:53:32;;;;;;;;;;;14.40;99.90;;;;;;5112121;27;19924;-75
2021/10/31 08:55:59;;;;;;;;;;;14.20;99.90;;;;;;5112992;27;19930;-76
2021/10/31 08:58:27;;;;;;;;;;;14.50;99.90;;;;;;5112881;27;19949;-75
2021/10/31 09:00:54;;;;;;;;;;;14.60;99.90;;;;;;5113188;27;19977;-76
2021/10/31 09:03:21;;;;;;;;;;;15.30;99.90;;;;;;5112573;27;19923;-76
2021/10/31 09:05:47;;;;;;;;;;;15.90;99.90;;;;;;5110118;27;20532;-76
2021/10/31 09:08:16;;;;;;;;;;;16.40;99.90;;;;;;5113793;28;20030;-77
2021/10/31 09:10:43;;;;;;;;;;;16.20;99.90;;;;;;5111960;27;19932;-78
2021/10/31 09:13:10;;;;;;;;;;;16.20;99.90;;;;;;5112652;28;19931;-77
2021/10/31 09:15:38;;;;;;;;;;;15.90;99.90;;;;;;5110900;27;19924;-77
2021/10/31 09:18:06;;;;;;;;;;;15.30;99.90;;;;;;5113503;27;19924;-77
2021/10/31 09:20:34;;;;;;;;;;;14.80;99.90;;;;;;5112351;27;20011;-77
2021/10/31 09:23:01;;;;;;;;;;;14.30;99.90;;;;;;5113950;28;20015;-76
2021/10/31 09:25:28;;;;;;;;;;;14.30;99.90;;;;;;5113767;27;19924;-75
2021/10/31 09:27:56;;;;;;;;;;;14.30;99.90;;;;;;5111103;27;19924;-75
2021/10/31 09:30:23;;;;;;;;;;;14.30;99.90;;;;;;5111846;27;19923;-75
2021/10/31 09:32:51;;;;;;;;;;;14.30;99.90;;;;;;5105017;27;19924;-75
2021/10/31 09:35:18;;;;;;;;;;;14.30;99.90;;;;;;5108830;27;19962;-76
2021/10/31 09:37:46;;;;;;;;;;;14.30;99.90;;;;;;5112113;27;19934;-74
2021/10/31 09:40:13;;;;;;;;;;;14.40;99.90;;;;;;5108896;27;19928;-75
2021/10/31 09:42:40;;;;;;;;;;;14.60;99.90;;;;;;5109612;27;20345;-75
2021/10/31 09:45:11;;;;;;;;;;;14.70;99.90;;;;;;5108871;27;19923;-75
2021/10/31 09:47:37;;;;;;;;;;;14.60;99.90;;;;;;5111819;27;20331;-75
2021/10/31 09:50:07;;;;;;;;;;;14.60;99.90;;;;;;5112918;27;19923;-75
2021/10/31 09:52:34;;;;;;;;;;;14.70;99.90;;;;;;5109489;27;19923;-75
2021/10/31 09:55:00;;;;;;;;;;;14.80;99.90;;;;;;5110237;27;19930;-75
2021/10/31 09:57:27;;;;;;;;;;;14.90;99.90;;;;;;5121522;27;19934;-75
2021/10/31 09:59:54;;;;;;;;;;;14.90;99.90;;;;;;5111661;27;20023;-75
2021/10/31 10:02:47;;;;;;;;;;;14.90;99.90;;;;;;5111995;27;20439;-75
2021/10/31 10:05:20;;;;;;;;;;;14.90;99.90;;;;;;5109919;27;19978;-75
2021/10/31 10:07:47;;;;;;;;;;;14.90;99.90;;;;;;5111696;27;19923;-75
2021/10/31 10:10:14;;;;;;;;;;;14.90;99.90;;;;;;5111931;27;19928;-75
2021/10/31 10:12:41;;;;;;;;;;;14.90;99.90;;;;;;5112349;28;19931;-74
2021/10/31 10:15:10;;;;;;;;;;;14.90;99.90;;;;;;5109086;27;20386;-75
2021/10/31 10:17:45;;;;;;;;;;;14.90;99.90;;;;;;5129443;27;19923;-74
2021/10/31 10:20:13;;;;;;;;;;;14.90;99.90;;;;;;5123522;27;20022;-75
2021/10/31 10:22:41;;;;;;;;;;;14.90;99.90;;;;;;5107273;27;19924;-74
2021/10/31 10:25:08;;;;;;;;;;;14.80;99.90;;;;;;5111236;27;20271;-74
2021/10/31 10:27:45;;;;;;;;;;;14.70;99.90;;;;;;5108021;27;19931;-75
2021/10/31 10:30:12;;;;;;;;;;;14.70;99.90;;;;;;5104922;27;19924;-75
2021/10/31 10:32:48;;;;;;;;;;;14.60;99.90;;;;;;5113153;28;19971;-75
2021/10/31 10:35:16;;;;;;;;;;;14.60;99.90;;;;;;5106302;27;19927;-75
2021/10/31 10:37:45;;;;;;;;;;;14.60;99.90;;;;;;5109218;27;19942;-77
2021/10/31 10:40:13;;;;;;;;;;;14.70;99.90;;;;;;5111136;27;19924;-76
2021/10/31 10:42:41;;;;;;;;;;;14.70;99.90;;;;;;5103771;27;19935;-76
2021/10/31 10:45:09;;;;;;;;;;;14.70;99.90;;;;;;5107515;27;19932;-76
2021/10/31 10:47:40;;;;;;;;;;;14.70;99.90;;;;;;5110460;28;19924;-76
2021/10/31 10:50:14;;;;;;;;;;;14.70;99.90;;;;;;5107825;28;19924;-76
2021/10/31 10:52:42;;;;;;;;;;;14.70;99.90;;;;;;5110334;27;20014;-74
2021/10/31 10:55:13;;;;;;;;;;;14.70;99.90;;;;;;5108996;27;19946;-74
2021/10/31 10:57:41;;;;;;;;;;;14.70;99.90;;;;;;5107284;27;19999;-74
2021/10/31 11:00:10;;;;;;;;;;;14.70;99.90;;;;;;5105840;27;20019;-74
2021/10/31 11:02:37;;;;;;;;;;;14.70;99.90;;;;;;5106721;27;19923;-74
2021/10/31 11:05:04;;;;;;;;;;;14.80;99.90;;;;;;5108022;27;19924;-74
2021/10/31 11:07:33;;;;;;;;;;;14.80;99.90;;;;;;5105072;27;20448;-74
2021/10/31 11:10:00;;;;;;;;;;;14.90;99.90;;;;;;5103694;27;19938;-74
2021/10/31 11:12:30;;;;;;;;;;;15.00;99.90;;;;;;5105905;27;19924;-74
2021/10/31 11:14:58;;;;;;;;;;;15.10;99.90;;;;;;5104567;28;19924;-74
2021/10/31 11:17:25;;;;;;;;;;;15.20;99.90;;;;;;5107457;27;19934;-74
2021/10/31 11:19:52;;;;;;;;;;;15.20;99.90;;;;;;5101872;27;20480;-75
2021/10/31 11:22:19;;;;;;;;;;;15.30;99.90;;;;;;5100408;28;19931;-75
2021/10/31 11:24:47;;;;;;;;;;;15.30;99.90;;;;;;5103379;27;19924;-77
2021/10/31 11:27:15;;;;;;;;;;;15.40;99.90;;;;;;5105537;27;19928;-75
2021/10/31 11:29:44;;;;;;;;;;;15.50;99.90;;;;;;5104948;27;19942;-75
2021/10/31 11:32:11;;;;;;;;;;;15.70;99.90;;;;;;5107728;27;19946;-76
2021/10/31 11:34:37;;;;;;;;;;;15.80;99.90;;;;;;5106605;27;19924;-76
2021/10/31 11:37:04;;;;;;;;;;;16.00;99.90;;;;;;5104596;28;19924;-75
2021/10/31 11:39:31;;;;;;;;;;;16.20;99.90;;;;;;5107747;27;20404;-75
2021/10/31 11:41:59;;;;;;;;;;;16.40;99.90;;;;;;5104296;28;19924;-75
2021/10/31 11:44:29;;;;;;;;;;;16.40;99.90;;;;;;5101324;27;20310;-75
2021/10/31 11:46:57;;;;;;;;;;;16.50;99.90;;;;;;5103956;27;19923;-75
2021/10/31 11:49:24;;;;;;;;;;;16.60;99.90;;;;;;5100998;28;19943;-75
2021/10/31 11:51:54;;;;;;;;;;;16.60;99.90;;;;;;5104089;28;20023;-77
2021/10/31 11:54:21;;;;;;;;;;;16.50;99.90;;;;;;5103669;27;19931;-76
2021/10/31 11:56:51;;;;;;;;;;;16.50;99.90;;;;;;5105532;27;19928;-76
2021/10/31 11:59:18;;;;;;;;;;;16.40;99.90;;;;;;5104972;27;20022;-76
2021/10/31 12:01:47;;;;;;;;;;;16.40;99.90;;;;;;5102892;28;20390;-76
2021/10/31 12:05:04;;;;;;;;;;;16.40;99.90;;;;;;5090458;28;21064;-77
2021/10/31 12:07:41;;;;;;;;;;;16.50;99.90;;;;;;5086938;28;19924;-77
2021/10/31 12:10:23;;;;;;;;;;;16.30;99.90;;;;;;5106037;28;19924;-76
2021/10/31 12:13:05;;;;;;;;;;;16.30;99.90;;;;;;5105346;28;19927;-78
2021/10/31 12:15:31;;;;;;;;;;;16.20;99.90;;;;;;5099144;28;19932;-76
2021/10/31 12:18:06;;;;;;;;;;;16.30;99.90;;;;;;5105361;28;19930;-77
2021/10/31 12:20:47;;;;;;;;;;;16.50;99.90;;;;;;5100299;28;19935;-77
2021/10/31 12:23:19;;;;;;;;;;;16.70;99.90;;;;;;5098848;28;19934;-76
2021/10/31 12:25:47;;;;;;;;;;;16.80;99.90;;;;;;5102320;28;20011;-76
2021/10/31 12:28:29;;;;;;;;;;;16.90;99.90;;;;;;5103468;28;19934;-77
2021/10/31 12:31:16;;;;;;;;;;;17.00;99.90;;;;;;5103717;28;20002;-75
2021/10/31 12:34:03;;;;;;;;;;;17.00;99.90;;;;;;5096160;28;19923;-75
2021/10/31 12:36:31;;;;;;;;;;;16.90;99.90;;;;;;5102303;28;19992;-74
2021/10/31 12:39:00;;;;;;;;;;;16.90;99.90;;;;;;5098376;28;19938;-77
2021/10/31 12:41:29;;;;;;;;;;;16.80;99.90;;;;;;5102310;28;19979;-76
2021/10/31 12:44:08;;;;;;;;;;;16.80;99.90;;;;;;5101029;28;20106;-75
2021/10/31 12:46:35;;;;;;;;;;;16.80;99.90;;;;;;5102585;28;19924;-75
2021/10/31 12:49:03;;;;;;;;;;;16.80;99.90;;;;;;5098916;28;19924;-75
2021/10/31 12:54:26;;;;;;;;;;;16.80;99.90;;;;;;5084575;28;19932;-74
2021/10/31 12:56:54;;;;;;;;;;;16.90;99.90;;;;;;5096995;28;19930;-76
2021/10/31 12:59:21;;;;;;;;;;;17.00;99.90;;;;;;5099844;28;20294;-76
2021/10/31 13:01:48;;;;;;;;;;;17.00;99.90;;;;;;5103637;28;19928;-75
2021/10/31 13:04:15;;;;;;;;;;;17.00;99.90;;;;;;5096654;28;19924;-74
2021/10/31 13:06:51;;;;;;;;;;;17.00;99.90;;;;;;5104538;27;19924;-73
2021/10/31 13:09:18;;;;;;;;;;;17.00;99.90;;;;;;5104970;27;20024;-74
2021/10/31 13:11:46;;;;;;;;;;;16.90;99.90;;;;;;5103833;27;20310;-73
2021/10/31 13:14:24;;;;;;;;;;;16.90;99.90;;;;;;5105195;27;19932;-74
2021/10/31 13:16:55;;;;;;;;;;;16.90;99.90;;;;;;5107600;27;20368;-73
2021/10/31 13:19:21;;;;;;;;;;;16.90;99.90;;;;;;5104430;27;20386;-72
2021/10/31 13:21:48;;;;;;;;;;;17.00;99.90;;;;;;5104543;27;19942;-73
2021/10/31 13:24:15;;;;;;;;;;;17.00;99.90;;;;;;5105886;27;20013;-73
2021/10/31 13:26:42;;;;;;;;;;;17.00;99.90;;;;;;5106769;27;19923;-73
2021/10/31 13:29:10;;;;;;;;;;;17.00;99.90;;;;;;5109445;27;19924;-73
2021/10/31 13:31:37;;;;;;;;;;;16.90;99.90;;;;;;5107986;27;20014;-72
2021/10/31 13:34:07;;;;;;;;;;;16.70;99.90;;;;;;5103122;27;19928;-73
2021/10/31 13:36:35;;;;;;;;;;;16.60;99.90;;;;;;5105809;27;19969;-73
2021/10/31 13:39:05;;;;;;;;;;;16.40;99.90;;;;;;5099263;27;19963;-75
2021/10/31 13:41:42;;;;;;;;;;;16.30;99.90;;;;;;5105419;27;19996;-72
2021/10/31 13:44:20;;;;;;;;;;;16.20;99.90;;;;;;5107047;27;19961;-73
2021/10/31 13:46:53;;;;;;;;;;;16.20;99.90;;;;;;5104150;27;19962;-72
2021/10/31 13:49:23;;;;;;;;;;;16.10;99.90;;;;;;5087701;27;19932;-71
2021/10/31 13:51:50;;;;;;;;;;;16.20;99.90;;;;;;5106585;27;19924;-73
2021/10/31 13:54:18;;;;;;;;;;;16.20;99.90;;;;;;5108517;27;20016;-74
2021/10/31 13:56:46;;;;;;;;;;;16.10;99.90;;;;;;5105672;27;20069;-70
2021/10/31 13:59:14;;;;;;;;;;;16.10;99.90;;;;;;5102602;27;19928;-71
2021/10/31 14:01:46;;;;;;;;;;;15.90;99.90;;;;;;5106739;27;20301;-74
2021/10/31 14:04:14;;;;;;;;;;;15.80;99.90;;;;;;5106429;27;20030;-71
2021/10/31 14:06:46;;;;;;;;;;;15.60;99.90;;;;;;5104264;27;19932;-73
2021/10/31 14:09:14;;;;;;;;;;;15.50;99.90;;;;;;5103932;27;19939;-75
2021/10/31 14:11:51;;;;;;;;;;;15.50;99.90;;;;;;5107030;27;19938;-75
2021/10/31 14:14:27;;;;;;;;;;;15.40;99.90;;;;;;5104791;27;20022;-73
2021/10/31 14:16:55;;;;;;;;;;;15.30;99.90;;;;;;5101293;27;19924;-75
2021/10/31 14:19:23;;;;;;;;;;;15.30;99.90;;;;;;5100848;27;20405;-75
2021/10/31 14:21:59;;;;;;;;;;;15.30;99.90;;;;;;5102283;27;19992;-75
2021/10/31 14:24:26;;;;;;;;;;;15.40;99.90;;;;;;5102845;27;20050;-75
2021/10/31 14:26:53;;;;;;;;;;;15.40;99.90;;;;;;5103325;27;19924;-73
2021/10/31 14:29:22;;;;;;;;;;;15.40;99.90;;;;;;5101331;27;19937;-74
2021/10/31 14:31:51;;;;;;;;;;;15.50;99.90;;;;;;5102102;27;20515;-76